Time;durP1;ratioP1;P1;durP2;ratioP2;P2;SDS_P1;SDS_P2;PMS_P1;PMS_P2;Temp;Humidity;BMP_temperature;BMP_pressure;BME280_temperature;BME280_humidity;BME280_pressure;Samples;Min_cycle;Max_cycle;Signal;HPM_P1;HPM_P2
2022/04/17 00:01:37;;;;;;;;;;;;;;;;;;5137100;27;20277;-42
2022/04/17 00:04:02;;;;;;;;;;;;;;;;;;5137018;27;19922;-42
2022/04/17 00:06:27;;;;;;;;;;;;;;;;;;5136858;27;20009;-43
2022/04/17 00:08:52;;;;;;;;;;;;;;;;;;5136610;27;19930;-43
2022/04/17 00:11:17;;;;;;;;;;;;;;;;;;5136697;27;19942;-42
2022/04/17 00:13:44;;;;;;;;;;;;;;;;;;5136771;27;19952;-43
2022/04/17 00:16:09;;;;;;;;;;;;;;;;;;5137307;27;19994;-43
2022/04/17 00:18:34;;;;;;;;;;;;;;;;;;5136874;27;20384;-42
2022/04/17 00:20:59;;;;;;;;;;;;;;;;;;5136909;27;20467;-42
2022/04/17 00:23:24;;;;;;;;;;;;;;;;;;5136621;27;19918;-42
2022/04/17 00:25:49;;;;;;;;;;;;;;;;;;5135577;27;20067;-42
2022/04/17 00:28:15;;;;;;;;;;;;;;;;;;5136295;27;19911;-42
2022/04/17 00:30:40;;;;;;;;;;;;;;;;;;5137108;27;20234;-42
2022/04/17 00:33:05;;;;;;;;;;;;;;;;;;5136764;27;19946;-43
2022/04/17 00:35:30;;;;;;;;;;;;;;;;;;5136813;27;19914;-42
2022/04/17 00:37:55;;;;;;;;;;;;;;;;;;5136547;27;19911;-42
2022/04/17 00:40:20;;;;;;;;;;;;;;;;;;5136924;27;19929;-42
2022/04/17 00:42:46;;;;;;;;;;;;;;;;;;5137369;27;19954;-42
2022/04/17 00:45:11;;;;;;;;;;;;;;;;;;5136898;28;19915;-42
2022/04/17 00:47:36;;;;;;;;;;;;;;;;;;5136861;27;19908;-43
2022/04/17 00:50:02;;;;;;;;;;;;;;;;;;5136584;27;19911;-42
2022/04/17 00:52:28;;;;;;;;;;;;;;;;;;5136121;28;19926;-42
2022/04/17 00:54:54;;;;;;;;;;;;;;;;;;5136401;28;19907;-42
2022/04/17 00:57:19;;;;;;;;;;;;;;;;;;5136642;28;19915;-42
2022/04/17 00:59:44;;;;;;;;;;;;;;;;;;5136364;28;19911;-42
2022/04/17 01:02:09;;;;;;;;;;;;;;;;;;5136611;28;19964;-43
2022/04/17 01:04:34;;;;;;;;;;;;;;;;;;5138386;27;19956;-43
2022/04/17 01:07:00;;;;;;;;;;;;;;;;;;5140874;27;19922;-43
2022/04/17 01:09:25;;;;;;;;;;;;;;;;;;5140589;27;19908;-43
2022/04/17 01:11:51;;;;;;;;;;;;;;;;;;5141105;27;19916;-43
2022/04/17 01:14:16;;;;;;;;;;;;;;;;;;5140403;27;19908;-43
2022/04/17 01:16:41;;;;;;;;;;;;;;;;;;5140787;27;19921;-43
2022/04/17 01:19:13;;;;;;;;;;;;;;;;;;5140203;27;19917;-42
2022/04/17 01:21:38;;;;;;;;;;;;;;;;;;5121766;27;19960;-43
2022/04/17 01:26:56;;;;;;;;;;;;;;;;;;5139865;27;19980;-43
2022/04/17 01:29:21;;;;;;;;;;;;;;;;;;5140058;27;19953;-42
2022/04/17 01:31:46;;;;;;;;;;;;;;;;;;5139633;27;19912;-42
2022/04/17 01:34:11;;;;;;;;;;;;;;;;;;5140797;27;19912;-43
2022/04/17 01:36:37;;;;;;;;;;;;;;;;;;5139805;27;19908;-43
2022/04/17 01:39:02;;;;;;;;;;;;;;;;;;5140174;27;19952;-42
2022/04/17 01:41:27;;;;;;;;;;;;;;;;;;5139825;27;19912;-43
2022/04/17 01:43:52;;;;;;;;;;;;;;;;;;5139816;27;19915;-43
2022/04/17 01:46:17;;;;;;;;;;;;;;;;;;5139489;27;20060;-43
2022/04/17 01:48:42;;;;;;;;;;;;;;;;;;5140010;27;19908;-42
2022/04/17 01:51:07;;;;;;;;;;;;;;;;;;5138809;22;20232;-43
2022/04/17 01:53:33;;;;;;;;;;;;;;;;;;5098882;28;19920;-42
2022/04/17 01:55:58;;;;;;;;;;;;;;;;;;5098682;28;19908;-42
2022/04/17 01:58:23;;;;;;;;;;;;;;;;;;5098808;28;20350;-43
2022/04/17 02:00:48;;;;;;;;;;;;;;;;;;5098489;28;20370;-43
2022/04/17 02:03:13;;;;;;;;;;;;;;;;;;5098767;28;20274;-43
2022/04/17 02:05:38;;;;;;;;;;;;;;;;;;5098154;28;20000;-43
2022/04/17 02:08:04;;;;;;;;;;;;;;;;;;5098094;28;19931;-42
2022/04/17 02:10:29;;;;;;;;;;;;;;;;;;5098036;28;20351;-43
2022/04/17 02:12:54;;;;;;;;;;;;;;;;;;5098274;28;19933;-43
2022/04/17 02:15:19;;;;;;;;;;;;;;;;;;5096557;28;19985;-43
2022/04/17 02:17:44;;;;;;;;;;;;;;;;;;5098338;28;19912;-43
2022/04/17 02:20:09;;;;;;;;;;;;;;;;;;5097942;28;19904;-43
2022/04/17 02:22:35;;;;;;;;;;;;;;;;;;5098445;28;20243;-43
2022/04/17 02:25:00;;;;;;;;;;;;;;;;;;5097419;28;19928;-42
2022/04/17 02:27:25;;;;;;;;;;;;;;;;;;5098065;28;19912;-43
2022/04/17 02:29:50;;;;;;;;;;;;;;;;;;5097864;28;19946;-42
2022/04/17 02:32:15;;;;;;;;;;;;;;;;;;5098297;28;19908;-43
2022/04/17 02:34:40;;;;;;;;;;;;;;;;;;5098086;28;19908;-42
2022/04/17 02:37:06;;;;;;;;;;;;;;;;;;5097646;28;19930;-43
2022/04/17 02:39:31;;;;;;;;;;;;;;;;;;5079575;28;19908;-42
2022/04/17 02:41:56;;;;;;;;;;;;;;;;;;5110526;28;20423;-42
2022/04/17 02:44:21;;;;;;;;;;;;;;;;;;5117545;28;20679;-42
2022/04/17 02:49:30;;;;;;;;;;;;;;;;;;5117873;28;19949;-43
2022/04/17 02:51:55;;;;;;;;;;;;;;;;;;5117599;28;19924;-43
2022/04/17 02:54:23;;;;;;;;;;;;;;;;;;5117878;28;19911;-43
2022/04/17 02:56:49;;;;;;;;;;;;;;;;;;5117145;28;19998;-43
2022/04/17 02:59:15;;;;;;;;;;;;;;;;;;5117745;28;19977;-43
2022/04/17 03:07:08;;;;;;;;;;;;;;;;;;5117911;28;20323;-43
2022/04/17 03:09:33;;;;;;;;;;;;;;;;;;5117806;28;20006;-42
2022/04/17 03:11:59;;;;;;;;;;;;;;;;;;5117428;28;19914;-42
2022/04/17 03:14:24;;;;;;;;;;;;;;;;;;5117975;28;19912;-43
2022/04/17 03:16:49;;;;;;;;;;;;;;;;;;5117841;28;19907;-42
2022/04/17 03:19:14;;;;;;;;;;;;;;;;;;5117850;28;19908;-43
2022/04/17 03:21:40;;;;;;;;;;;;;;;;;;5117420;28;19918;-42
2022/04/17 03:24:05;;;;;;;;;;;;;;;;;;5117712;28;20018;-42
2022/04/17 03:26:30;;;;;;;;;;;;;;;;;;5116831;28;20006;-43
2022/04/17 03:28:55;;;;;;;;;;;;;;;;;;5117257;28;20355;-43
2022/04/17 03:31:20;;;;;;;;;;;;;;;;;;5116633;28;19912;-42
2022/04/17 03:33:46;;;;;;;;;;;;;;;;;;5117645;28;19908;-43
2022/04/17 03:36:11;;;;;;;;;;;;;;;;;;5117837;28;19912;-42
2022/04/17 03:38:37;;;;;;;;;;;;;;;;;;5117115;28;20006;-43
2022/04/17 03:41:02;;;;;;;;;;;;;;;;;;5116797;28;20362;-43
2022/04/17 03:43:27;;;;;;;;;;;;;;;;;;5099045;28;20345;-43
2022/04/17 03:45:53;;;;;;;;;;;;;;;;;;5117249;28;19930;-44
2022/04/17 03:48:18;;;;;;;;;;;;;;;;;;5116780;28;19908;-44
2022/04/17 03:50:43;;;;;;;;;;;;;;;;;;5098630;28;19951;-43
2022/04/17 03:53:08;;;;;;;;;;;;;;;;;;5116731;28;20311;-43
2022/04/17 03:55:33;;;;;;;;;;;;;;;;;;5116358;28;19912;-44
2022/04/17 03:57:58;;;;;;;;;;;;;;;;;;5116609;28;20058;-43
2022/04/17 04:00:23;;;;;;;;;;;;;;;;;;5116795;28;19918;-44
2022/04/17 04:02:49;;;;;;;;;;;;;;;;;;5116829;28;19961;-44
2022/04/17 04:05:14;;;;;;;;;;;;;;;;;;5116591;28;20380;-44
2022/04/17 04:07:39;;;;;;;;;;;;;;;;;;5116596;28;19931;-43
2022/04/17 04:10:04;;;;;;;;;;;;;;;;;;5116687;28;20274;-44
2022/04/17 04:12:29;;;;;;;;;;;;;;;;;;5116591;28;19914;-43
2022/04/17 04:14:54;;;;;;;;;;;;;;;;;;5116742;28;20259;-41
2022/04/17 04:17:20;;;;;;;;;;;;;;;;;;5116792;28;19939;-42
2022/04/17 04:19:45;;;;;;;;;;;;;;;;;;5116404;28;19911;-42
2022/04/17 04:22:10;;;;;;;;;;;;;;;;;;5115320;28;19915;-42
2022/04/17 04:24:35;;;;;;;;;;;;;;;;;;5115849;28;20269;-42
2022/04/17 04:29:44;;;;;;;;;;;;;;;;;;5116883;28;19994;-42
2022/04/17 04:32:09;;;;;;;;;;;;;;;;;;5116449;28;19949;-42
2022/04/17 04:34:34;;;;;;;;;;;;;;;;;;5117004;28;19961;-42
2022/04/17 04:37:00;;;;;;;;;;;;;;;;;;5116730;28;20098;-41
2022/04/17 04:39:25;;;;;;;;;;;;;;;;;;5116175;28;19908;-42
2022/04/17 04:41:50;;;;;;;;;;;;;;;;;;5116438;28;19994;-42
2022/04/17 04:44:15;;;;;;;;;;;;;;;;;;5116672;28;19911;-43
2022/04/17 04:46:40;;;;;;;;;;;;;;;;;;5116237;28;19908;-41
2022/04/17 04:51:49;;;;;;;;;;;;;;;;;;5116060;28;19926;-42
2022/04/17 04:54:14;;;;;;;;;;;;;;;;;;5116264;28;19907;-42
2022/04/17 04:56:39;;;;;;;;;;;;;;;;;;5116080;28;19943;-42
2022/04/17 04:59:05;;;;;;;;;;;;;;;;;;5116615;28;20255;-42
2022/04/17 05:01:30;;;;;;;;;;;;;;;;;;5116265;28;19908;-42
2022/04/17 05:03:55;;;;;;;;;;;;;;;;;;5116238;28;19919;-43
2022/04/17 05:06:20;;;;;;;;;;;;;;;;;;5116006;28;19998;-42
2022/04/17 05:08:45;;;;;;;;;;;;;;;;;;5115995;28;19911;-42
2022/04/17 05:11:10;;;;;;;;;;;;;;;;;;5116076;28;19908;-42
2022/04/17 05:13:35;;;;;;;;;;;;;;;;;;5116291;28;19910;-42
2022/04/17 05:16:00;;;;;;;;;;;;;;;;;;5116251;28;19915;-42
2022/04/17 05:18:26;;;;;;;;;;;;;;;;;;5114716;28;19944;-44
2022/04/17 05:20:51;;;;;;;;;;;;;;;;;;5115723;28;19908;-43
2022/04/17 05:23:26;;;;;;;;;;;;;;;;;;5115917;28;19915;-42
2022/04/17 05:25:51;;;;;;;;;;;;;;;;;;5115758;28;19930;-42
2022/04/17 05:28:16;;;;;;;;;;;;;;;;;;5116323;28;20355;-42
2022/04/17 05:30:41;;;;;;;;;;;;;;;;;;5116283;28;19911;-42
2022/04/17 05:33:06;;;;;;;;;;;;;;;;;;5116142;28;19964;-43
2022/04/17 05:35:31;;;;;;;;;;;;;;;;;;5116343;28;20278;-42
2022/04/17 05:37:56;;;;;;;;;;;;;;;;;;5116015;28;20355;-41
2022/04/17 05:40:22;;;;;;;;;;;;;;;;;;5115653;28;19954;-42
2022/04/17 05:42:47;;;;;;;;;;;;;;;;;;5114587;28;19912;-42
2022/04/17 05:45:12;;;;;;;;;;;;;;;;;;5115629;28;19911;-42
2022/04/17 05:47:37;;;;;;;;;;;;;;;;;;5115782;28;19908;-42
2022/04/17 05:50:03;;;;;;;;;;;;;;;;;;5116840;28;19972;-42
2022/04/17 05:52:28;;;;;;;;;;;;;;;;;;5119776;28;20049;-42
2022/04/17 05:54:53;;;;;;;;;;;;;;;;;;5119689;28;20016;-42
2022/04/17 05:57:19;;;;;;;;;;;;;;;;;;5120179;28;19930;-42
2022/04/17 05:59:44;;;;;;;;;;;;;;;;;;5119492;28;19908;-43
2022/04/17 06:02:13;;;;;;;;;;;;;;;;;;5119441;28;19915;-43
2022/04/17 06:04:38;;;;;;;;;;;;;;;;;;5119354;28;20291;-44
2022/04/17 06:07:03;;;;;;;;;;;;;;;;;;5119085;28;19908;-43
2022/04/17 06:09:28;;;;;;;;;;;;;;;;;;5119479;28;20310;-42
2022/04/17 06:11:53;;;;;;;;;;;;;;;;;;5118981;28;19960;-42
2022/04/17 06:14:18;;;;;;;;;;;;;;;;;;5118718;28;20006;-43
2022/04/17 06:16:43;;;;;;;;;;;;;;;;;;5119079;28;19904;-43
2022/04/17 06:19:11;;;;;;;;;;;;;;;;;;5118788;28;20378;-42
2022/04/17 06:21:36;;;;;;;;;;;;;;;;;;5118935;28;19994;-42
2022/04/17 06:24:01;;;;;;;;;;;;;;;;;;5118664;28;20353;-42
2022/04/17 06:26:27;;;;;;;;;;;;;;;;;;5118489;28;20372;-43
2022/04/17 06:28:52;;;;;;;;;;;;;;;;;;5119349;28;19915;-42
2022/04/17 06:31:17;;;;;;;;;;;;;;;;;;5118566;28;19908;-43
2022/04/17 06:33:42;;;;;;;;;;;;;;;;;;5118240;28;20377;-42
2022/04/17 06:36:07;;;;;;;;;;;;;;;;;;5118517;28;19914;-43
2022/04/17 06:38:32;;;;;;;;;;;;;;;;;;5118021;28;19908;-43
2022/04/17 06:40:57;;;;;;;;;;;;;;;;;;5118103;28;19955;-42
2022/04/17 06:43:22;;;;;;;;;;;;;;;;;;5117803;28;19930;-43
2022/04/17 06:45:47;;;;;;;;;;;;;;;;;;5118111;28;19965;-43
2022/04/17 06:48:13;;;;;;;;;;;;;;;;;;5118558;28;19915;-42
2022/04/17 06:50:38;;;;;;;;;;;;;;;;;;5118458;28;20010;-43
2022/04/17 06:53:04;;;;;;;;;;;;;;;;;;5117968;28;19926;-42
2022/04/17 06:55:29;;;;;;;;;;;;;;;;;;5117959;28;19961;-43
2022/04/17 06:57:55;;;;;;;;;;;;;;;;;;5117915;28;19908;-42
2022/04/17 07:00:22;;;;;;;;;;;;;;;;;;5117631;28;20039;-43
2022/04/17 07:02:47;;;;;;;;;;;;;;;;;;5117363;28;19943;-43
2022/04/17 07:05:12;;;;;;;;;;;;;;;;;;5117822;28;19982;-43
2022/04/17 07:07:37;;;;;;;;;;;;;;;;;;5118134;28;19998;-44
2022/04/17 07:10:02;;;;;;;;;;;;;;;;;;5117945;28;19961;-43
2022/04/17 07:12:29;;;;;;;;;;;;;;;;;;5117430;28;19976;-43
2022/04/17 07:14:54;;;;;;;;;;;;;;;;;;5117809;28;20326;-43
2022/04/17 07:17:20;;;;;;;;;;;;;;;;;;5117311;28;19912;-43
2022/04/17 07:19:45;;;;;;;;;;;;;;;;;;5118121;28;19915;-42
2022/04/17 07:22:13;;;;;;;;;;;;;;;;;;5117400;28;20351;-42
2022/04/17 07:24:40;;;;;;;;;;;;;;;;;;5116969;28;19962;-43
2022/04/17 07:27:05;;;;;;;;;;;;;;;;;;5117796;28;19972;-43
2022/04/17 07:29:31;;;;;;;;;;;;;;;;;;5117246;28;19951;-43
2022/04/17 07:31:56;;;;;;;;;;;;;;;;;;5117193;28;19911;-43
2022/04/17 07:34:21;;;;;;;;;;;;;;;;;;5116944;28;20328;-43
2022/04/17 07:36:52;;;;;;;;;;;;;;;;;;5116988;28;19945;-45
2022/04/17 07:39:18;;;;;;;;;;;;;;;;;;5117363;28;19914;-43
2022/04/17 07:41:43;;;;;;;;;;;;;;;;;;5117182;28;20002;-43
2022/04/17 07:44:11;;;;;;;;;;;;;;;;;;5117456;28;19915;-45
2022/04/17 07:46:37;;;;;;;;;;;;;;;;;;5098628;28;19908;-43
2022/04/17 07:49:02;;;;;;;;;;;;;;;;;;5117397;28;19919;-44
2022/04/17 07:51:27;;;;;;;;;;;;;;;;;;5116595;28;19931;-43
2022/04/17 07:53:52;;;;;;;;;;;;;;;;;;5116413;28;19912;-43
2022/04/17 07:56:17;;;;;;;;;;;;;;;;;;5116291;28;19912;-43
2022/04/17 07:58:42;;;;;;;;;;;;;;;;;;5116670;28;19912;-43
2022/04/17 08:01:11;;;;;;;;;;;;;;;;;;5117031;28;19934;-44
2022/04/17 08:06:07;;;;;;;;;;;;;;;;;;5116562;28;20358;-43
2022/04/17 08:08:32;;;;;;;;;;;;;;;;;;5116521;28;19908;-44
2022/04/17 08:10:58;;;;;;;;;;;;;;;;;;5098326;28;19930;-44
2022/04/17 08:13:23;;;;;;;;;;;;;;;;;;5116167;28;19930;-43
2022/04/17 08:15:49;;;;;;;;;;;;;;;;;;5116263;28;19908;-44
2022/04/17 08:18:14;;;;;;;;;;;;;;;;;;5115888;28;20002;-44
2022/04/17 08:20:40;;;;;;;;;;;;;;;;;;5116003;28;20017;-45
2022/04/17 08:23:05;;;;;;;;;;;;;;;;;;5116187;28;19912;-45
2022/04/17 08:25:30;;;;;;;;;;;;;;;;;;5115553;28;19912;-43
2022/04/17 08:27:55;;;;;;;;;;;;;;;;;;5116360;28;19911;-44
2022/04/17 08:30:20;;;;;;;;;;;;;;;;;;5116162;28;19915;-43
2022/04/17 08:32:45;;;;;;;;;;;;;;;;;;5116239;28;20006;-43
2022/04/17 08:35:10;;;;;;;;;;;;;;;;;;5115997;28;19933;-43
2022/04/17 08:37:36;;;;;;;;;;;;;;;;;;5116171;28;19971;-46
2022/04/17 08:40:01;;;;;;;;;;;;;;;;;;5116066;28;20305;-43
2022/04/17 08:42:26;;;;;;;;;;;;;;;;;;5115964;28;19908;-43
2022/04/17 08:44:51;;;;;;;;;;;;;;;;;;5116074;28;19912;-44
2022/04/17 08:47:16;;;;;;;;;;;;;;;;;;5098011;28;20255;-44
2022/04/17 08:49:41;;;;;;;;;;;;;;;;;;5116291;28;19957;-43
2022/04/17 08:52:08;;;;;;;;;;;;;;;;;;5115883;28;20015;-43
2022/04/17 08:54:33;;;;;;;;;;;;;;;;;;5115691;28;19999;-43
2022/04/17 08:56:58;;;;;;;;;;;;;;;;;;5116328;28;20338;-44
2022/04/17 08:59:23;;;;;;;;;;;;;;;;;;5116033;28;20026;-43
2022/04/17 09:01:48;;;;;;;;;;;;;;;;;;5115563;28;19930;-44
2022/04/17 09:04:14;;;;;;;;;;;;;;;;;;5115826;28;20357;-45
2022/04/17 09:06:39;;;;;;;;;;;;;;;;;;5115601;28;20255;-43
2022/04/17 09:09:04;;;;;;;;;;;;;;;;;;5115460;28;19948;-44
2022/04/17 09:11:29;;;;;;;;;;;;;;;;;;5116180;28;20304;-44
2022/04/17 09:13:54;;;;;;;;;;;;;;;;;;5115734;28;19912;-43
2022/04/17 09:16:19;;;;;;;;;;;;;;;;;;5097756;28;19914;-44
2022/04/17 09:18:44;;;;;;;;;;;;;;;;;;5097558;28;19954;-43
2022/04/17 09:21:09;;;;;;;;;;;;;;;;;;5115735;28;19912;-44
2022/04/17 09:23:35;;;;;;;;;;;;;;;;;;5115440;28;20258;-44
2022/04/17 09:26:00;;;;;;;;;;;;;;;;;;5117615;28;19918;-44
2022/04/17 09:28:25;;;;;;;;;;;;;;;;;;5119599;28;19908;-44
2022/04/17 09:30:51;;;;;;;;;;;;;;;;;;5119673;28;19916;-44
2022/04/17 09:33:17;;;;;;;;;;;;;;;;;;5119761;28;19919;-44
2022/04/17 09:35:42;;;;;;;;;;;;;;;;;;5119372;28;19919;-44
2022/04/17 09:38:07;;;;;;;;;;;;;;;;;;5119132;28;19908;-44
2022/04/17 09:40:32;;;;;;;;;;;;;;;;;;5118808;28;19987;-44
2022/04/17 09:42:57;;;;;;;;;;;;;;;;;;5119330;28;20251;-44
2022/04/17 09:45:23;;;;;;;;;;;;;;;;;;5119263;28;19911;-45
2022/04/17 09:47:48;;;;;;;;;;;;;;;;;;5119581;28;20012;-44
2022/04/17 09:50:13;;;;;;;;;;;;;;;;;;5119138;28;19915;-43
2022/04/17 09:52:38;;;;;;;;;;;;;;;;;;5119196;28;20362;-44
2022/04/17 09:55:03;;;;;;;;;;;;;;;;;;5118514;28;20006;-44
2022/04/17 09:57:28;;;;;;;;;;;;;;;;;;5119063;28;19907;-45
2022/04/17 09:59:54;;;;;;;;;;;;;;;;;;5118983;28;20300;-44
2022/04/17 10:02:19;;;;;;;;;;;;;;;;;;5119023;28;19919;-44
2022/04/17 10:04:45;;;;;;;;;;;;;;;;;;5119180;28;19912;-44
2022/04/17 10:07:10;;;;;;;;;;;;;;;;;;5118875;28;19915;-44
2022/04/17 10:09:35;;;;;;;;;;;;;;;;;;5119290;28;19908;-43
2022/04/17 10:12:00;;;;;;;;;;;;;;;;;;5118794;28;19908;-44
2022/04/17 10:14:25;;;;;;;;;;;;;;;;;;5118545;28;19915;-44
2022/04/17 10:16:51;;;;;;;;;;;;;;;;;;5118995;28;20002;-44
2022/04/17 10:19:16;;;;;;;;;;;;;;;;;;5118746;28;20257;-44
2022/04/17 10:21:41;;;;;;;;;;;;;;;;;;5118341;28;19908;-44
2022/04/17 10:24:06;;;;;;;;;;;;;;;;;;5118026;28;20416;-43
2022/04/17 10:26:31;;;;;;;;;;;;;;;;;;5118268;28;20255;-43
2022/04/17 10:28:56;;;;;;;;;;;;;;;;;;5118285;28;20270;-44
2022/04/17 10:31:21;;;;;;;;;;;;;;;;;;5118464;28;19919;-43
2022/04/17 10:33:46;;;;;;;;;;;;;;;;;;5118201;28;19915;-44
2022/04/17 10:36:12;;;;;;;;;;;;;;;;;;5116080;28;19911;-43
2022/04/17 10:38:37;;;;;;;;;;;;;;;;;;5118022;28;19907;-44
2022/04/17 10:41:02;;;;;;;;;;;;;;;;;;5117857;28;19912;-43
2022/04/17 10:43:27;;;;;;;;;;;;;;;;;;5118139;28;20366;-44
2022/04/17 10:45:52;;;;;;;;;;;;;;;;;;5117841;28;20308;-43
2022/04/17 10:48:17;;;;;;;;;;;;;;;;;;5118157;28;19977;-44
2022/04/17 10:50:42;;;;;;;;;;;;;;;;;;5117898;28;19907;-44
2022/04/17 10:53:07;;;;;;;;;;;;;;;;;;5116771;28;19916;-45
2022/04/17 10:55:34;;;;;;;;;;;;;;;;;;5117810;28;19941;-44
2022/04/17 10:57:59;;;;;;;;;;;;;;;;;;5117814;28;19911;-43
2022/04/17 11:00:25;;;;;;;;;;;;;;;;;;5118209;28;19964;-45
2022/04/17 11:02:51;;;;;;;;;;;;;;;;;;5117987;28;20465;-44
2022/04/17 11:05:16;;;;;;;;;;;;;;;;;;5117623;28;19988;-43
2022/04/17 11:07:41;;;;;;;;;;;;;;;;;;5117733;28;19912;-44
2022/04/17 11:10:06;;;;;;;;;;;;;;;;;;5117416;28;19908;-44
2022/04/17 11:12:32;;;;;;;;;;;;;;;;;;5117916;28;19911;-44
2022/04/17 11:14:57;;;;;;;;;;;;;;;;;;5117755;28;19911;-43
2022/04/17 11:17:22;;;;;;;;;;;;;;;;;;5116962;28;19908;-44
2022/04/17 11:19:47;;;;;;;;;;;;;;;;;;5117756;28;19911;-43
2022/04/17 11:22:12;;;;;;;;;;;;;;;;;;5117823;28;19908;-43
2022/04/17 11:24:37;;;;;;;;;;;;;;;;;;5117255;28;19915;-44
2022/04/17 11:27:02;;;;;;;;;;;;;;;;;;5117538;28;20309;-45
2022/04/17 11:29:27;;;;;;;;;;;;;;;;;;5117406;28;19908;-44
2022/04/17 11:31:53;;;;;;;;;;;;;;;;;;5117459;28;19990;-45
2022/04/17 11:34:18;;;;;;;;;;;;;;;;;;5117331;28;20003;-43
2022/04/17 11:36:43;;;;;;;;;;;;;;;;;;5117438;28;19914;-45
2022/04/17 11:39:10;;;;;;;;;;;;;;;;;;5117579;28;20479;-44
2022/04/17 11:41:35;;;;;;;;;;;;;;;;;;5104349;28;19951;-43
2022/04/17 11:44:00;;;;;;;;;;;;;;;;;;5096682;28;19923;-44
2022/04/17 11:46:26;;;;;;;;;;;;;;;;;;5096990;28;19918;-44
2022/04/17 11:48:51;;;;;;;;;;;;;;;;;;5096535;28;19915;-43
2022/04/17 11:51:16;;;;;;;;;;;;;;;;;;5096437;28;19923;-42
2022/04/17 11:53:41;;;;;;;;;;;;;;;;;;5106434;28;20370;-43
2022/04/17 11:56:07;;;;;;;;;;;;;;;;;;5116660;28;19912;-42
2022/04/17 11:58:32;;;;;;;;;;;;;;;;;;5116672;28;19907;-42
2022/04/17 12:00:57;;;;;;;;;;;;;;;;;;5115209;28;20373;-42
2022/04/17 12:03:23;;;;;;;;;;;;;;;;;;5116105;28;20350;-42
2022/04/17 12:05:48;;;;;;;;;;;;;;;;;;5116268;28;19918;-43
2022/04/17 12:08:13;;;;;;;;;;;;;;;;;;5116430;28;20002;-43
2022/04/17 12:10:38;;;;;;;;;;;;;;;;;;5116255;28;19907;-43
2022/04/17 12:13:03;;;;;;;;;;;;;;;;;;5116371;28;20002;-41
2022/04/17 12:15:28;;;;;;;;;;;;;;;;;;5115944;28;20247;-43
2022/04/17 12:17:53;;;;;;;;;;;;;;;;;;5116629;28;19908;-43
2022/04/17 12:20:19;;;;;;;;;;;;;;;;;;5116560;28;20015;-43
2022/04/17 12:22:44;;;;;;;;;;;;;;;;;;5116298;28;19912;-43
2022/04/17 12:25:09;;;;;;;;;;;;;;;;;;5116158;28;19922;-43
2022/04/17 12:27:35;;;;;;;;;;;;;;;;;;5115908;28;19918;-45
2022/04/17 12:30:02;;;;;;;;;;;;;;;;;;5115886;28;19912;-42
2022/04/17 12:32:27;;;;;;;;;;;;;;;;;;5115795;28;19908;-43
2022/04/17 12:34:52;;;;;;;;;;;;;;;;;;5115901;28;19908;-43
2022/04/17 12:37:17;;;;;;;;;;;;;;;;;;5115892;28;19908;-43
2022/04/17 12:39:42;;;;;;;;;;;;;;;;;;5115476;28;19915;-42
2022/04/17 12:42:07;;;;;;;;;;;;;;;;;;5116006;28;19907;-43
2022/04/17 12:44:32;;;;;;;;;;;;;;;;;;5115427;28;20274;-42
2022/04/17 12:46:57;;;;;;;;;;;;;;;;;;5115968;28;19935;-43
2022/04/17 12:49:25;;;;;;;;;;;;;;;;;;5115751;28;19908;-42
2022/04/17 12:51:50;;;;;;;;;;;;;;;;;;5115631;28;19920;-43
2022/04/17 12:54:15;;;;;;;;;;;;;;;;;;5097718;28;20244;-43
2022/04/17 12:56:40;;;;;;;;;;;;;;;;;;5097234;28;19916;-43
2022/04/17 12:59:07;;;;;;;;;;;;;;;;;;5115575;28;19953;-43
2022/04/17 13:01:33;;;;;;;;;;;;;;;;;;5115385;28;19915;-44
2022/04/17 13:03:58;;;;;;;;;;;;;;;;;;5115788;28;20369;-43
2022/04/17 13:06:23;;;;;;;;;;;;;;;;;;5115661;28;20389;-43
2022/04/17 13:08:48;;;;;;;;;;;;;;;;;;5115562;28;19907;-44
2022/04/17 13:11:13;;;;;;;;;;;;;;;;;;5115874;28;20362;-42
2022/04/17 13:13:38;;;;;;;;;;;;;;;;;;5115742;28;19915;-42
2022/04/17 13:16:03;;;;;;;;;;;;;;;;;;5115481;28;19915;-43
2022/04/17 13:18:28;;;;;;;;;;;;;;;;;;5115645;28;19976;-43
2022/04/17 13:20:54;;;;;;;;;;;;;;;;;;5115385;28;19917;-42
2022/04/17 13:23:19;;;;;;;;;;;;;;;;;;5115671;28;19919;-43
2022/04/17 13:25:44;;;;;;;;;;;;;;;;;;5115074;28;19965;-44
2022/04/17 13:28:11;;;;;;;;;;;;;;;;;;5115554;28;19934;-44
2022/04/17 13:30:36;;;;;;;;;;;;;;;;;;5115351;28;19919;-44
2022/04/17 13:33:01;;;;;;;;;;;;;;;;;;5115296;28;20370;-46
2022/04/17 13:35:26;;;;;;;;;;;;;;;;;;5115631;28;20274;-44
2022/04/17 13:40:36;;;;;;;;;;;;;;;;;;5115417;28;19915;-43
2022/04/17 13:43:01;;;;;;;;;;;;;;;;;;5115426;28;20274;-43
2022/04/17 13:45:26;;;;;;;;;;;;;;;;;;5115234;28;19912;-43
2022/04/17 13:47:52;;;;;;;;;;;;;;;;;;5115544;28;20358;-45
2022/04/17 13:50:17;;;;;;;;;;;;;;;;;;5115326;28;19908;-43
2022/04/17 13:52:42;;;;;;;;;;;;;;;;;;5145183;22;19923;-43
2022/04/17 13:55:09;;;;;;;;;;;;;;;;;;5135503;28;19908;-43
2022/04/17 13:57:34;;;;;;;;;;;;;;;;;;5119451;28;19912;-43
2022/04/17 13:59:59;;;;;;;;;;;;;;;;;;5114974;28;20421;-43
2022/04/17 14:02:24;;;;;;;;;;;;;;;;;;5114988;28;19908;-43
2022/04/17 14:04:49;;;;;;;;;;;;;;;;;;5115297;28;19916;-43
2022/04/17 14:07:14;;;;;;;;;;;;;;;;;;5114977;28;20010;-44
2022/04/17 14:09:40;;;;;;;;;;;;;;;;;;5114683;28;20354;-43
2022/04/17 14:12:09;;;;;;;;;;;;;;;;;;5117687;28;19912;-43
2022/04/17 14:14:34;;;;;;;;;;;;;;;;;;5118878;28;20277;-43
2022/04/17 14:16:59;;;;;;;;;;;;;;;;;;5118682;28;19907;-44
2022/04/17 14:19:24;;;;;;;;;;;;;;;;;;5118737;28;19908;-43
2022/04/17 14:21:49;;;;;;;;;;;;;;;;;;5118299;28;19908;-44
2022/04/17 14:24:14;;;;;;;;;;;;;;;;;;5118595;28;19911;-43
2022/04/17 14:26:40;;;;;;;;;;;;;;;;;;5125326;27;19919;-45
2022/04/17 14:29:05;;;;;;;;;;;;;;;;;;5138950;27;19908;-44
2022/04/17 14:31:30;;;;;;;;;;;;;;;;;;5139028;27;20269;-44
2022/04/17 14:33:55;;;;;;;;;;;;;;;;;;5116276;27;19964;-44
2022/04/17 14:36:21;;;;;;;;;;;;;;;;;;5118372;28;19922;-44
2022/04/17 14:38:46;;;;;;;;;;;;;;;;;;5118005;28;20382;-44
2022/04/17 14:41:13;;;;;;;;;;;;;;;;;;5117988;28;19960;-44
2022/04/17 14:43:39;;;;;;;;;;;;;;;;;;5136773;27;19947;-43
2022/04/17 14:46:04;;;;;;;;;;;;;;;;;;5138441;27;19912;-44
2022/04/17 14:48:29;;;;;;;;;;;;;;;;;;5138450;27;19954;-43
2022/04/17 14:50:55;;;;;;;;;;;;;;;;;;5138013;27;20048;-43
2022/04/17 14:53:20;;;;;;;;;;;;;;;;;;5133669;27;19917;-44
2022/04/17 14:55:45;;;;;;;;;;;;;;;;;;5116222;28;19919;-44
2022/04/17 14:58:10;;;;;;;;;;;;;;;;;;5117331;28;19915;-43
2022/04/17 15:00:35;;;;;;;;;;;;;;;;;;5117945;28;19907;-45
2022/04/17 15:03:00;;;;;;;;;;;;;;;;;;5117574;28;19915;-44
2022/04/17 15:05:25;;;;;;;;;;;;;;;;;;5117468;28;19912;-44
2022/04/17 15:07:50;;;;;;;;;;;;;;;;;;5117734;28;20010;-43
2022/04/17 15:10:17;;;;;;;;;;;;;;;;;;5117454;28;19914;-46
2022/04/17 15:12:43;;;;;;;;;;;;;;;;;;5117212;28;19907;-43
2022/04/17 15:15:08;;;;;;;;;;;;;;;;;;5117134;28;19919;-43
2022/04/17 15:17:33;;;;;;;;;;;;;;;;;;5117458;28;19908;-44
2022/04/17 15:19:58;;;;;;;;;;;;;;;;;;5117276;28;19912;-44
2022/04/17 15:22:23;;;;;;;;;;;;;;;;;;5116673;28;19970;-43
2022/04/17 15:24:49;;;;;;;;;;;;;;;;;;5116780;28;19916;-44
2022/04/17 15:27:14;;;;;;;;;;;;;;;;;;5117032;28;19950;-45
2022/04/17 15:29:39;;;;;;;;;;;;;;;;;;5116877;28;20285;-43
2022/04/17 15:32:04;;;;;;;;;;;;;;;;;;5116756;28;20010;-43
2022/04/17 15:34:29;;;;;;;;;;;;;;;;;;5117100;28;19991;-43
2022/04/17 15:36:54;;;;;;;;;;;;;;;;;;5117025;28;19961;-43
2022/04/17 15:39:19;;;;;;;;;;;;;;;;;;5116927;28;19915;-45
2022/04/17 15:41:44;;;;;;;;;;;;;;;;;;5098169;28;19914;-46
2022/04/17 15:49:51;;;;;;;;;;;;;;;;;;5054163;28;19931;-44
2022/04/17 15:52:16;;;;;;;;;;;;;;;;;;5054056;28;19920;-44
2022/04/17 15:54:41;;;;;;;;;;;;;;;;;;5053420;28;20363;-42
2022/04/17 15:57:06;;;;;;;;;;;;;;;;;;5090475;28;19919;-45
2022/04/17 15:59:31;;;;;;;;;;;;;;;;;;5116609;28;19908;-46
2022/04/17 16:01:56;;;;;;;;;;;;;;;;;;5115261;28;19915;-47
2022/04/17 16:04:22;;;;;;;;;;;;;;;;;;5116518;28;19912;-45
2022/04/17 16:06:47;;;;;;;;;;;;;;;;;;5116520;28;20386;-44
2022/04/17 16:09:12;;;;;;;;;;;;;;;;;;5116846;28;20373;-44
2022/04/17 16:11:38;;;;;;;;;;;;;;;;;;5115639;28;19926;-45
2022/04/17 16:14:03;;;;;;;;;;;;;;;;;;5116443;28;19908;-47
2022/04/17 16:16:28;;;;;;;;;;;;;;;;;;5116353;28;19912;-45
2022/04/17 16:18:53;;;;;;;;;;;;;;;;;;5116443;28;19908;-44
2022/04/17 16:21:18;;;;;;;;;;;;;;;;;;5116186;28;19912;-44
2022/04/17 16:23:44;;;;;;;;;;;;;;;;;;5116293;28;19911;-45
2022/04/17 16:26:13;;;;;;;;;;;;;;;;;;5115570;28;19915;-45
2022/04/17 16:28:38;;;;;;;;;;;;;;;;;;5116278;28;20329;-45
2022/04/17 16:31:04;;;;;;;;;;;;;;;;;;5115835;28;19908;-43
2022/04/17 16:33:29;;;;;;;;;;;;;;;;;;5116070;28;19904;-45
2022/04/17 16:35:54;;;;;;;;;;;;;;;;;;5115092;28;19908;-44
2022/04/17 16:38:19;;;;;;;;;;;;;;;;;;5115044;28;19908;-45
2022/04/17 16:40:44;;;;;;;;;;;;;;;;;;5114588;28;19980;-45
2022/04/17 16:43:09;;;;;;;;;;;;;;;;;;5115820;28;19910;-44
2022/04/17 16:45:35;;;;;;;;;;;;;;;;;;5115782;28;19911;-44
2022/04/17 16:48:00;;;;;;;;;;;;;;;;;;5115763;28;19965;-45
2022/04/17 16:50:25;;;;;;;;;;;;;;;;;;5115730;28;19931;-45
2022/04/17 16:52:50;;;;;;;;;;;;;;;;;;5114226;28;19919;-45
2022/04/17 16:55:15;;;;;;;;;;;;;;;;;;5115742;28;19911;-45
2022/04/17 17:00:24;;;;;;;;;;;;;;;;;;5115768;28;19915;-44
2022/04/17 17:02:49;;;;;;;;;;;;;;;;;;5115444;28;19911;-45